createdAt,value
2017-10-15T00:00:22.522Z,10.47
2017-10-15T00:02:51.095Z,9.93
2017-10-15T00:05:19.528Z,12.20
2017-10-15T00:07:47.964Z,10.17
2017-10-15T00:10:15.804Z,9.80
2017-10-15T00:12:44.939Z,10.20
2017-10-15T00:15:13.319Z,11.17
2017-10-15T00:17:42.452Z,9.90
2017-10-15T00:20:10.823Z,11.33
2017-10-15T00:22:39.184Z,10.73
2017-10-15T00:25:07.554Z,10.57
2017-10-15T00:27:35.932Z,16.30
2017-10-15T00:30:04.310Z,12.43
2017-10-15T00:32:32.690Z,12.20
2017-10-15T00:35:01.071Z,12.80
2017-10-15T00:37:29.451Z,14.17
2017-10-15T00:39:57.831Z,11.53
2017-10-15T00:42:26.211Z,12.03
2017-10-15T00:44:55.370Z,11.30
2017-10-15T00:47:24.084Z,11.40
2017-10-15T00:49:52.499Z,11.73
2017-10-15T00:52:20.859Z,14.13
2017-10-15T00:54:48.882Z,10.07
2017-10-15T00:57:16.571Z,11.03
2017-10-15T00:59:45.184Z,10.93
2017-10-15T01:02:13.564Z,11.57
2017-10-15T01:04:42.042Z,9.83
2017-10-15T01:07:10.518Z,11.87
2017-10-15T01:09:38.883Z,11.73
2017-10-15T01:12:07.268Z,13.10
2017-10-15T01:14:35.747Z,11.17
2017-10-15T01:17:06.117Z,12.37
2017-10-15T01:19:34.139Z,13.83
2017-10-15T01:22:01.819Z,10.70
2017-10-15T01:24:29.498Z,10.50
2017-10-15T01:26:56.995Z,10.10
2017-10-15T01:29:24.822Z,11.80
2017-10-15T01:31:52.851Z,10.30
2017-10-15T01:34:20.808Z,14.20
2017-10-15T01:36:48.487Z,10.67
2017-10-15T01:39:16.767Z,11.50
2017-10-15T01:41:44.812Z,10.40
2017-10-15T01:44:12.497Z,10.10
2017-10-15T01:46:40.519Z,10.30
2017-10-15T01:49:08.024Z,10.97
2017-10-15T01:51:35.710Z,9.90
2017-10-15T01:54:03.626Z,12.10
2017-10-15T01:56:31.818Z,12.30
2017-10-15T01:58:59.855Z,10.00
2017-10-15T02:01:27.548Z,11.30
2017-10-15T02:03:55.928Z,12.43
2017-10-15T02:06:24.298Z,11.30
2017-10-15T02:08:52.688Z,11.23
2017-10-15T02:11:21.304Z,9.60
2017-10-15T02:13:49.599Z,13.37
2017-10-15T02:16:17.619Z,10.77
2017-10-15T02:18:46.219Z,12.53
2017-10-15T02:21:15.519Z,10.77
2017-10-15T02:23:44.651Z,9.93
2017-10-15T02:26:13.045Z,14.93
2017-10-15T02:28:41.070Z,10.47
2017-10-15T02:31:09.440Z,10.90
2017-10-15T02:33:37.843Z,10.47
2017-10-15T02:36:06.221Z,10.43
2017-10-15T02:38:34.844Z,10.63
2017-10-15T02:41:02.875Z,10.43
2017-10-15T02:43:31.245Z,10.57
2017-10-15T02:45:59.620Z,10.13
2017-10-15T02:48:28.010Z,12.17
2017-10-15T02:50:56.380Z,10.67
2017-10-15T02:53:24.752Z,10.40
2017-10-15T02:55:53.125Z,9.20
2017-10-15T02:58:21.504Z,11.33
2017-10-15T03:00:49.887Z,10.30
2017-10-15T03:03:19.064Z,10.67
2017-10-15T03:05:47.440Z,11.13
2017-10-15T03:08:15.875Z,11.70
2017-10-15T03:10:44.260Z,12.13
2017-10-15T03:13:13.454Z,10.60
2017-10-15T03:15:41.971Z,11.37
2017-10-15T03:18:10.329Z,10.40
2017-10-15T03:20:38.703Z,11.80
2017-10-15T03:23:07.080Z,11.10
2017-10-15T03:25:35.449Z,14.93
2017-10-15T03:28:03.825Z,13.50
2017-10-15T03:30:32.205Z,11.30
2017-10-15T03:33:00.578Z,11.10
2017-10-15T03:35:29.883Z,11.83
2017-10-15T03:37:58.169Z,10.50
2017-10-15T03:40:26.362Z,11.40
2017-10-15T03:42:54.738Z,11.43
2017-10-15T03:45:23.872Z,10.67
2017-10-15T03:47:53.023Z,10.10
2017-10-15T03:50:21.393Z,11.03
2017-10-15T03:52:49.770Z,11.47
2017-10-15T03:55:18.247Z,12.93
2017-10-15T03:57:46.631Z,11.07
2017-10-15T04:00:15.007Z,12.67
2017-10-15T04:02:43.386Z,11.93
2017-10-15T04:05:11.767Z,12.47
2017-10-15T04:07:40.147Z,10.50
2017-10-15T04:10:08.520Z,10.70
2017-10-15T04:12:36.896Z,12.17
2017-10-15T04:15:05.082Z,11.53
2017-10-15T04:17:34.091Z,12.07
2017-10-15T04:20:03.056Z,11.70
2017-10-15T04:22:31.488Z,11.87
2017-10-15T04:24:59.859Z,12.00
2017-10-15T04:27:28.054Z,12.50
2017-10-15T04:29:56.430Z,12.57
2017-10-15T04:32:24.799Z,11.73
2017-10-15T04:34:53.170Z,11.63
2017-10-15T04:37:21.560Z,13.00
2017-10-15T04:39:49.940Z,18.17
2017-10-15T04:42:18.306Z,11.40
2017-10-15T04:44:46.693Z,12.53
2017-10-15T04:47:15.071Z,14.20
2017-10-15T04:49:43.473Z,11.50
2017-10-15T04:52:11.859Z,16.47
2017-10-15T04:54:40.239Z,13.43
2017-10-15T04:57:08.609Z,11.97
2017-10-15T04:59:36.976Z,17.37
2017-10-15T05:02:05.355Z,14.40
2017-10-15T05:04:33.722Z,17.13
2017-10-15T05:07:02.094Z,12.90
2017-10-15T05:09:30.652Z,17.03
2017-10-15T05:11:59.110Z,14.97
2017-10-15T05:14:27.724Z,19.33
2017-10-15T05:16:56.083Z,14.30
2017-10-15T05:19:24.462Z,14.50
2017-10-15T05:21:52.833Z,13.30
2017-10-15T05:24:21.023Z,13.30
2017-10-15T05:26:49.392Z,13.40
2017-10-15T05:29:17.774Z,16.27
2017-10-15T05:31:46.153Z,14.07
2017-10-15T05:34:14.520Z,14.30
2017-10-15T05:36:42.730Z,13.30
2017-10-15T05:39:11.101Z,14.60
2017-10-15T05:41:39.475Z,16.90
2017-10-15T05:44:07.855Z,14.70
2017-10-15T05:46:36.232Z,20.00
2017-10-15T05:49:04.615Z,14.53
2017-10-15T05:51:33.782Z,16.23
2017-10-15T05:54:02.099Z,13.50
2017-10-15T05:56:30.478Z,16.67
2017-10-15T05:58:58.885Z,15.53
2017-10-15T06:01:27.350Z,13.60
2017-10-15T06:03:56.033Z,16.03
2017-10-15T06:06:24.408Z,16.87
2017-10-15T06:08:52.616Z,25.03
2017-10-15T06:11:20.463Z,14.90
2017-10-15T06:13:48.830Z,16.60
2017-10-15T06:16:17.219Z,14.37
2017-10-15T06:18:46.426Z,14.17
2017-10-15T06:21:14.815Z,14.93
2017-10-15T06:23:43.194Z,15.63
2017-10-15T06:26:11.825Z,16.43
2017-10-15T06:28:40.194Z,16.43
2017-10-15T06:31:08.270Z,13.97
2017-10-15T06:33:36.628Z,20.03
2017-10-15T06:36:05.004Z,16.70
2017-10-15T06:38:33.404Z,18.90
2017-10-15T06:41:02.079Z,16.03
2017-10-15T06:43:30.447Z,15.53
2017-10-15T06:45:58.841Z,13.70
2017-10-15T06:48:27.229Z,15.93
2017-10-15T06:50:55.595Z,13.37
2017-10-15T06:53:23.975Z,17.77
2017-10-15T06:55:52.355Z,13.87
2017-10-15T06:58:20.729Z,14.87
2017-10-15T07:00:49.138Z,15.13
2017-10-15T07:03:17.770Z,17.17
2017-10-15T07:05:46.147Z,16.40
2017-10-15T07:08:14.692Z,17.87
2017-10-15T07:10:43.073Z,12.47
2017-10-15T07:13:11.514Z,18.13
2017-10-15T07:15:39.960Z,13.87
2017-10-15T07:18:08.526Z,14.93
2017-10-15T07:20:36.900Z,15.37
2017-10-15T07:23:05.274Z,16.37
2017-10-15T07:25:33.653Z,13.60
2017-10-15T07:28:02.040Z,15.80
2017-10-15T07:30:30.412Z,13.40
2017-10-15T07:32:58.780Z,16.83
2017-10-15T07:35:27.175Z,13.00
2017-10-15T07:37:55.559Z,16.90
2017-10-15T07:40:24.086Z,14.37
2017-10-15T07:42:53.265Z,12.90
2017-10-15T07:45:21.934Z,13.17
2017-10-15T07:47:50.311Z,19.50
2017-10-15T07:50:18.721Z,14.10
2017-10-15T07:52:47.137Z,14.20
2017-10-15T07:55:15.513Z,12.97
2017-10-15T07:57:43.747Z,14.47
2017-10-15T08:00:12.127Z,14.33
2017-10-15T08:02:40.500Z,14.93
2017-10-15T08:05:09.738Z,13.10
2017-10-15T08:07:38.326Z,18.50
2017-10-15T08:10:06.812Z,14.33
2017-10-15T08:12:36.215Z,20.57
2017-10-15T08:15:04.797Z,15.37
2017-10-15T08:17:33.278Z,15.50
2017-10-15T08:20:01.654Z,13.50
2017-10-15T08:22:30.037Z,13.17
2017-10-15T08:24:58.683Z,20.23
2017-10-15T08:27:27.277Z,13.83
2017-10-15T08:29:55.650Z,16.90
2017-10-15T08:32:24.036Z,17.20
2017-10-15T08:34:52.426Z,15.43
2017-10-15T08:37:20.811Z,14.30
2017-10-15T08:39:49.210Z,13.93
2017-10-15T08:42:17.583Z,14.10
2017-10-15T08:44:46.544Z,15.50
2017-10-15T08:47:14.940Z,13.70
2017-10-15T08:49:43.308Z,15.50
2017-10-15T08:52:11.692Z,19.77
2017-10-15T08:54:40.120Z,14.80
2017-10-15T08:57:08.656Z,15.53
2017-10-15T08:59:36.867Z,15.20
2017-10-15T09:02:05.265Z,18.47
2017-10-15T09:04:33.654Z,13.63
2017-10-15T09:07:02.052Z,13.80
2017-10-15T09:09:30.460Z,14.80
2017-10-15T09:11:58.870Z,15.70
2017-10-15T09:14:27.266Z,14.90
2017-10-15T09:16:55.701Z,12.90
2017-10-15T09:19:24.085Z,14.40
2017-10-15T09:21:52.499Z,14.30
2017-10-15T09:24:20.885Z,12.70
2017-10-15T09:26:49.266Z,13.40
2017-10-15T09:29:17.582Z,16.40
2017-10-15T09:31:45.961Z,13.07
2017-10-15T09:34:14.639Z,12.53
2017-10-15T09:36:43.023Z,12.33
2017-10-15T09:39:11.395Z,14.70
2017-10-15T09:41:39.772Z,15.03
2017-10-15T09:44:08.168Z,13.03
2017-10-15T09:46:36.621Z,11.37
2017-10-15T09:49:04.988Z,12.37
2017-10-15T09:51:33.391Z,13.93
2017-10-15T09:54:01.871Z,11.07
2017-10-15T09:56:31.097Z,11.20
2017-10-15T09:58:59.621Z,13.73
2017-10-15T10:01:28.010Z,11.73
2017-10-15T10:03:56.466Z,15.87
2017-10-15T10:06:25.226Z,13.23
2017-10-15T10:08:53.921Z,10.10
2017-10-15T10:11:22.359Z,13.03
2017-10-15T10:13:51.168Z,10.07
2017-10-15T10:16:19.733Z,9.13
2017-10-15T10:18:48.447Z,10.03
2017-10-15T10:21:16.922Z,9.47
2017-10-15T10:23:46.059Z,16.70
2017-10-15T10:26:14.256Z,10.23
2017-10-15T10:28:42.903Z,13.93
2017-10-15T10:31:11.486Z,8.60
2017-10-15T10:33:39.854Z,11.00
2017-10-15T10:36:08.229Z,11.40
2017-10-15T10:38:36.788Z,11.83
2017-10-15T10:41:05.994Z,9.77
2017-10-15T10:43:34.359Z,11.30
2017-10-15T10:46:03.511Z,10.60
2017-10-15T10:48:31.968Z,10.00
2017-10-15T10:51:00.384Z,13.70
2017-10-15T10:53:28.787Z,11.07
2017-10-15T10:55:57.185Z,16.23
2017-10-15T10:58:25.561Z,13.17
2017-10-15T11:00:53.928Z,13.53
2017-10-15T11:03:22.418Z,8.87
2017-10-15T11:05:50.803Z,12.23
2017-10-15T11:08:19.274Z,9.27
2017-10-15T11:10:47.687Z,8.63
2017-10-15T11:13:16.068Z,10.97
2017-10-15T11:15:44.434Z,9.50
2017-10-15T11:18:12.811Z,9.33
2017-10-15T11:20:41.007Z,9.07
2017-10-15T11:23:09.222Z,10.10
2017-10-15T11:25:37.615Z,9.80
2017-10-15T11:28:05.999Z,9.40
2017-10-15T11:30:34.390Z,14.53
2017-10-15T11:33:02.928Z,9.53
2017-10-15T11:35:31.302Z,10.60
2017-10-15T11:37:59.681Z,9.27
2017-10-15T11:40:28.055Z,8.37
2017-10-15T11:42:56.442Z,9.27
2017-10-15T11:45:24.622Z,8.73
2017-10-15T11:47:52.997Z,12.20
2017-10-15T11:50:21.382Z,8.90
2017-10-15T11:52:49.777Z,8.13
2017-10-15T11:55:18.164Z,10.47
2017-10-15T11:57:46.540Z,10.93
2017-10-15T12:00:14.918Z,9.50
2017-10-15T12:02:43.282Z,8.37
2017-10-15T12:05:11.710Z,9.20
2017-10-15T12:07:40.081Z,7.47
2017-10-15T12:10:08.360Z,12.40
2017-10-15T12:12:36.738Z,10.90
2017-10-15T12:15:05.108Z,9.60
2017-10-15T12:17:33.700Z,10.00
2017-10-15T12:20:02.119Z,8.80
2017-10-15T12:22:30.533Z,9.63
2017-10-15T12:24:58.945Z,9.43
2017-10-15T12:27:27.867Z,7.73
2017-10-15T12:29:56.295Z,9.93
2017-10-15T12:32:24.870Z,10.50
2017-10-15T12:34:53.328Z,9.47
2017-10-15T12:37:21.725Z,9.00
2017-10-15T12:39:50.113Z,8.03
2017-10-15T12:42:19.034Z,11.00
2017-10-15T12:44:47.413Z,15.70
2017-10-15T12:47:15.450Z,11.30
2017-10-15T12:49:44.047Z,13.23
2017-10-15T12:52:12.419Z,11.60
2017-10-15T12:54:40.801Z,10.20
2017-10-15T12:57:09.346Z,10.13
2017-10-15T12:59:37.721Z,12.20
2017-10-15T13:02:06.115Z,9.77
2017-10-15T13:04:34.487Z,8.57
2017-10-15T13:07:02.860Z,11.03
2017-10-15T13:09:31.246Z,10.53
2017-10-15T13:11:59.627Z,10.20
2017-10-15T13:14:28.083Z,11.50
2017-10-15T13:16:56.661Z,12.93
2017-10-15T13:19:24.865Z,7.80
2017-10-15T13:21:53.287Z,12.37
2017-10-15T13:24:21.702Z,11.60
2017-10-15T13:26:50.104Z,8.37
2017-10-15T13:29:18.541Z,8.53
2017-10-15T13:31:46.946Z,9.50
2017-10-15T13:34:15.319Z,9.60
2017-10-15T13:36:43.728Z,12.83
2017-10-15T13:39:12.982Z,10.67
2017-10-15T13:41:42.121Z,11.00
2017-10-15T13:44:10.612Z,9.60
2017-10-15T13:46:39.061Z,11.10
2017-10-15T13:49:07.575Z,15.93
2017-10-15T13:51:36.054Z,13.93
2017-10-15T13:54:04.516Z,11.40
2017-10-15T13:56:33.003Z,10.40
2017-10-15T13:59:01.552Z,11.20
2017-10-15T14:01:29.959Z,13.40
2017-10-15T14:03:58.351Z,16.23
2017-10-15T14:06:26.943Z,10.50
2017-10-15T14:08:55.117Z,9.50
2017-10-15T14:11:23.497Z,9.70
2017-10-15T14:13:51.878Z,12.53
2017-10-15T14:16:20.251Z,15.23
2017-10-15T14:18:48.623Z,10.20
2017-10-15T14:21:17.004Z,14.07
2017-10-15T14:23:45.406Z,11.57
2017-10-15T14:26:13.790Z,10.33
2017-10-15T14:28:42.161Z,9.93
2017-10-15T14:31:10.549Z,10.00
2017-10-15T14:33:38.736Z,13.03
2017-10-15T14:36:07.872Z,10.43
2017-10-15T14:38:36.447Z,12.50
2017-10-15T14:41:04.822Z,10.67
2017-10-15T14:43:33.256Z,11.07
2017-10-15T14:46:01.576Z,9.00
2017-10-15T14:48:29.794Z,12.37
2017-10-15T14:50:58.184Z,8.47
2017-10-15T14:53:26.605Z,10.37
2017-10-15T14:55:55.154Z,9.13
2017-10-15T14:58:23.860Z,10.87
2017-10-15T15:00:52.991Z,8.60
2017-10-15T15:03:21.200Z,9.80
2017-10-15T15:05:49.630Z,8.40
2017-10-15T15:08:17.820Z,9.23
2017-10-15T15:10:46.203Z,10.30
2017-10-15T15:13:14.612Z,10.17
2017-10-15T15:15:42.984Z,10.33
2017-10-15T15:18:11.589Z,12.67
2017-10-15T15:20:40.063Z,8.67
2017-10-15T15:23:08.472Z,11.30
2017-10-15T15:25:36.885Z,9.43
2017-10-15T15:28:05.334Z,9.53
2017-10-15T15:30:33.704Z,13.00
2017-10-15T15:33:02.073Z,8.80
2017-10-15T15:35:30.494Z,8.77
2017-10-15T15:37:58.907Z,12.13
2017-10-15T15:40:27.282Z,9.17
2017-10-15T15:42:55.775Z,10.13
2017-10-15T15:45:24.146Z,8.83
2017-10-15T15:47:52.550Z,10.60
2017-10-15T15:50:20.922Z,10.57
2017-10-15T15:52:50.849Z,8.63
2017-10-15T15:55:19.058Z,9.93
2017-10-15T15:57:47.668Z,14.50
2017-10-15T16:00:16.060Z,11.50
2017-10-15T16:02:44.459Z,9.70
2017-10-15T16:05:12.855Z,10.90
2017-10-15T16:07:41.228Z,12.70
2017-10-15T16:10:10.373Z,20.10
2017-10-15T16:12:39.085Z,16.13
2017-10-15T16:15:07.271Z,14.80
2017-10-15T16:17:35.686Z,11.37
2017-10-15T16:20:03.714Z,14.70
2017-10-15T16:22:32.861Z,14.10
2017-10-15T16:25:01.323Z,14.00
2017-10-15T16:27:29.944Z,12.77
2017-10-15T16:29:58.319Z,10.10
2017-10-15T16:32:26.714Z,24.10
2017-10-15T16:34:55.091Z,12.83
2017-10-15T16:37:24.388Z,13.20
2017-10-15T16:39:52.775Z,11.30
2017-10-15T16:42:22.097Z,17.10
2017-10-15T16:44:50.474Z,12.63
2017-10-15T16:47:19.000Z,11.07
2017-10-15T16:49:47.184Z,16.80
2017-10-15T16:52:15.584Z,13.13
2017-10-15T16:54:44.740Z,16.17
2017-10-15T16:57:12.936Z,14.67
2017-10-15T16:59:41.921Z,15.93
2017-10-15T17:02:10.111Z,12.60
2017-10-15T17:04:38.710Z,12.43
2017-10-15T17:07:07.085Z,12.57
2017-10-15T17:09:35.468Z,13.40
2017-10-15T17:14:48.495Z,19.67
2017-10-15T17:17:16.879Z,13.77
2017-10-15T17:19:45.261Z,12.90
2017-10-15T17:22:13.452Z,12.97
2017-10-15T17:24:41.871Z,13.93
2017-10-15T17:27:10.252Z,15.50
2017-10-15T17:29:44.837Z,12.80
2017-10-15T17:32:13.224Z,17.53
2017-10-15T17:34:41.415Z,15.00
2017-10-15T17:37:09.660Z,13.30
2017-10-15T17:39:38.084Z,14.20
2017-10-15T17:42:06.322Z,15.23
2017-10-15T17:44:34.706Z,13.37
2017-10-15T17:47:03.091Z,15.53
2017-10-15T17:49:30.798Z,16.57
2017-10-15T17:51:59.187Z,14.53
2017-10-15T17:54:27.675Z,15.23
2017-10-15T17:56:55.904Z,15.30
2017-10-15T17:59:23.868Z,16.03
2017-10-15T18:04:55.593Z,13.47
2017-10-15T18:07:23.978Z,18.03
2017-10-15T18:09:52.617Z,15.90
2017-10-15T18:12:20.999Z,15.10
2017-10-15T18:14:49.388Z,14.87
2017-10-15T18:17:18.222Z,14.87
2017-10-15T18:19:46.608Z,18.23
2017-10-15T18:22:15.004Z,16.43
2017-10-15T18:24:43.400Z,16.27
2017-10-15T18:27:11.601Z,16.67
2017-10-15T18:29:40.760Z,14.97
2017-10-15T18:32:09.289Z,15.93
2017-10-15T18:34:38.441Z,15.50
2017-10-15T18:37:06.866Z,16.27
2017-10-15T18:39:35.301Z,19.67
2017-10-15T18:42:03.692Z,19.13
2017-10-15T18:44:32.158Z,18.47
2017-10-15T18:47:00.377Z,18.27
2017-10-15T18:49:29.043Z,18.80
2017-10-15T18:51:57.812Z,18.10
2017-10-15T18:54:26.914Z,23.37
2017-10-15T18:56:56.103Z,17.23
2017-10-15T18:59:25.279Z,23.73
2017-10-15T19:01:53.668Z,17.60
2017-10-15T19:04:22.095Z,19.10
2017-10-15T19:06:50.523Z,21.33
2017-10-15T19:09:19.677Z,18.50
2017-10-15T19:11:48.112Z,18.70
2017-10-15T19:14:17.263Z,19.63
2017-10-15T19:16:45.663Z,19.83
2017-10-15T19:19:13.870Z,18.53
2017-10-15T19:21:41.917Z,17.10
2017-10-15T19:24:10.314Z,19.63
2017-10-15T19:26:38.807Z,18.30
2017-10-15T19:29:07.191Z,19.43
2017-10-15T19:31:35.629Z,21.77
2017-10-15T19:34:04.812Z,30.10
2017-10-15T19:36:33.195Z,22.50
2017-10-15T19:39:02.352Z,18.27
2017-10-15T19:41:30.757Z,20.60
2017-10-15T19:43:59.152Z,20.30
2017-10-15T19:46:27.658Z,18.37
2017-10-15T19:48:56.044Z,21.43
2017-10-15T19:51:24.420Z,19.63
2017-10-15T19:53:52.820Z,23.97
2017-10-15T19:56:21.266Z,18.63
2017-10-15T19:58:49.664Z,19.20
2017-10-15T20:01:17.873Z,24.57
2017-10-15T20:03:46.264Z,30.47
2017-10-15T20:06:14.720Z,17.80
2017-10-15T20:08:43.139Z,20.77
2017-10-15T20:11:11.561Z,20.50
2017-10-15T20:13:40.029Z,21.83
2017-10-15T20:16:08.453Z,21.60
2017-10-15T20:18:36.853Z,21.60
2017-10-15T20:21:05.060Z,23.73
2017-10-15T20:23:33.398Z,21.23
2017-10-15T20:26:01.587Z,22.57
2017-10-15T20:28:29.984Z,25.77
2017-10-15T20:30:58.729Z,23.87
2017-10-15T20:33:27.120Z,19.57
2017-10-15T20:35:55.556Z,23.50
2017-10-15T20:38:23.962Z,22.30
2017-10-15T20:40:53.797Z,19.53
2017-10-15T20:43:24.900Z,29.77
2017-10-15T20:45:58.637Z,22.23
2017-10-15T20:48:28.430Z,21.33
2017-10-15T20:50:56.803Z,22.50
2017-10-15T20:53:26.249Z,23.90
2017-10-15T20:55:56.592Z,24.50
2017-10-15T20:58:24.988Z,19.50
2017-10-15T21:00:53.376Z,19.87
2017-10-15T21:03:21.963Z,21.03
2017-10-15T21:05:50.537Z,32.50
2017-10-15T21:08:19.117Z,22.43
2017-10-15T21:10:47.526Z,19.07
2017-10-15T21:13:16.281Z,20.00
2017-10-15T21:15:44.867Z,20.17
2017-10-15T21:18:13.323Z,21.17
2017-10-15T21:20:41.710Z,22.57
2017-10-15T21:23:10.093Z,22.70
2017-10-15T21:25:38.490Z,23.40
2017-10-15T21:28:06.898Z,22.60
2017-10-15T21:30:35.285Z,20.23
2017-10-15T21:33:03.966Z,27.00
2017-10-15T21:35:32.943Z,23.50
2017-10-15T21:38:01.397Z,25.33
2017-10-15T21:40:29.788Z,21.10
2017-10-15T21:42:57.985Z,21.50
2017-10-15T21:45:26.212Z,20.30
2017-10-15T21:47:54.415Z,20.33
2017-10-15T21:50:22.894Z,19.27
2017-10-15T21:52:51.271Z,22.30
2017-10-15T21:55:19.690Z,20.13
2017-10-15T21:57:48.063Z,23.13
2017-10-15T22:00:15.755Z,25.30
2017-10-15T22:02:44.115Z,19.50
2017-10-15T22:05:12.492Z,21.80
2017-10-15T22:07:40.863Z,31.13
2017-10-15T22:10:09.242Z,24.67
2017-10-15T22:12:37.642Z,22.50
2017-10-15T22:15:06.015Z,21.53
2017-10-15T22:17:34.392Z,23.47
2017-10-15T22:20:02.946Z,30.57
2017-10-15T22:22:31.482Z,25.43
2017-10-15T22:24:59.849Z,21.23
2017-10-15T22:27:28.811Z,22.70
2017-10-15T22:29:57.205Z,27.73
2017-10-15T22:32:25.590Z,22.90
2017-10-15T22:34:54.993Z,19.37
2017-10-15T22:37:23.385Z,23.43
2017-10-15T22:39:51.780Z,24.47
2017-10-15T22:42:20.195Z,22.63
2017-10-15T22:44:48.573Z,22.70
2017-10-15T22:47:16.948Z,19.30
2017-10-15T22:49:45.147Z,19.80
2017-10-15T22:52:13.628Z,23.90
2017-10-15T22:54:42.007Z,23.40
2017-10-15T22:57:10.384Z,21.73
2017-10-15T22:59:38.912Z,23.43
2017-10-15T23:02:07.279Z,23.17
2017-10-15T23:04:35.961Z,24.37
2017-10-15T23:07:04.368Z,25.87
2017-10-15T23:09:32.868Z,21.13
2017-10-15T23:12:01.068Z,25.00
2017-10-15T23:14:30.239Z,22.60
2017-10-15T23:16:58.616Z,22.90
2017-10-15T23:19:27.031Z,25.87
2017-10-15T23:21:56.435Z,25.50
2017-10-15T23:24:25.498Z,21.60
2017-10-15T23:26:54.650Z,21.40
2017-10-15T23:29:23.142Z,20.07
2017-10-15T23:31:52.293Z,23.97
2017-10-15T23:34:20.675Z,27.83
2017-10-15T23:36:49.053Z,22.90
2017-10-15T23:39:17.435Z,20.67
2017-10-15T23:41:46.415Z,21.40
2017-10-15T23:44:14.821Z,23.80
2017-10-15T23:46:43.999Z,23.10
2017-10-15T23:49:12.462Z,22.27
2017-10-15T23:51:41.048Z,20.17
2017-10-15T23:54:09.423Z,20.10
2017-10-15T23:56:37.813Z,20.73
2017-10-15T23:59:06.192Z,27.37
